Date,TemperatureHighF,TemperatureAvgF,TemperatureLowF,DewpointHighF,DewpointAvgF,DewpointLowF,HumidityHigh,HumidityAvg,HumidityLow,PressureMaxIn,PressureMinIn,WindSpeedMaxMPH,WindSpeedAvgMPH,GustSpeedMaxMPH,PrecipitationSumIn
2013-2-1,34.1,23.0,15.4,27.4,12.7,0.1,88,65,42,30.19,29.88,31,2,31,0.00
2013-2-2,35.2,26.1,15.8,29.2,20.5,7.7,93,80,51,30.18,29.94,13,1,13,0.01
2013-2-3,35.5,29.7,22.3,28.3,23.6,17.8,89,78,65,29.98,29.86,19,2,20,0.05
2013-2-4,41.7,31.0,18.4,31.3,23.3,15.2,88,74,54,30.02,29.91,11,1,11,0.12
2013-2-5,44.2,38.5,32.8,35.8,30.7,23.1,85,73,60,29.99,29.88,15,2,15,0.03
2013-2-6,47.9,38.2,31.6,34.1,29.8,25.3,89,73,43,30.16,29.98,9,2,9,0.00
2013-2-7,41.4,38.0,35.5,37.0,32.5,26.5,95,81,60,30.16,29.94,4,0,4,0.37
2013-2-8,44.7,38.3,28.8,42.1,34.7,23.9,96,87,56,30.10,29.87,12,1,12,0.02
2013-2-9,45.9,33.9,23.1,26.1,21.5,10.4,92,64,27,30.23,30.08,8,2,8,0.00
2013-2-10,48.7,41.5,34.6,45.0,29.4,15.6,94,65,28,30.24,30.05,19,2,19,0.94
2013-2-11,51.6,46.2,37.8,50.2,41.2,27.9,96,84,53,30.09,30.00,17,1,17,0.45
2013-2-12,46.9,38.4,32.3,34.9,29.3,23.7,94,71,42,30.09,29.86,9,1,9,0.32
2013-2-13,46.9,38.3,29.3,42.6,35.2,26.6,96,88,73,29.86,29.65,22,2,22,0.32
2013-2-14,43.2,33.1,26.2,32.4,27.5,23.1,91,80,55,30.00,29.86,10,2,10,0.00
2013-2-15,46.9,36.8,29.0,34.6,29.4,25.9,91,76,52,30.04,29.93,14,2,14,0.00
2013-2-16,29.0,24.1,16.8,26.1,18.3,6.3,92,79,59,29.95,29.80,17,2,17,0.00
2013-2-17,28.2,20.3,14.4,15.0,7.6,3.0,76,58,37,30.12,29.91,24,3,24,0.00
2013-2-18,44.6,31.9,21.2,32.0,22.5,14.1,82,69,51,30.20,30.04,13,2,15,0.14
2013-2-19,39.7,34.2,25.6,35.2,27.1,14.8,93,76,57,30.05,29.86,23,2,23,0.37
2013-2-20,41.4,28.7,20.3,22.8,15.1,9.3,76,58,32,30.07,29.99,7,1,7,0.01
2013-2-21,51.1,34.2,22.9,34.9,24.5,15.5,94,69,40,30.11,30.00,9,1,9,0.65
2013-2-22,48.6,40.7,34.4,45.8,38.4,31.8,95,92,86,30.14,29.98,11,1,11,0.59
2013-2-23,53.7,46.5,39.4,49.6,43.8,32.1,96,90,75,30.00,29.82,14,1,14,0.32
2013-2-24,49.1,38.1,31.2,34.4,30.3,25.0,93,75,44,30.02,29.86,7,2,7,0.00
2013-2-25,44.2,36.4,29.9,32.7,28.1,24.3,86,72,56,30.03,29.89,7,1,7,0.00
2013-2-26,49.0,38.9,33.1,44.9,35.6,29.2,98,88,75,29.89,29.53,27,2,28,1.04
2013-2-27,46.2,37.5,30.7,33.6,28.9,25.1,89,72,52,29.76,29.63,17,3,17,0.00
2013-2-28,34.1,30.2,26.9,26.7,23.3,20.9,81,75,67,29.85,29.69,13,3,13,0.01